createdAt,value
2022-10-01T00:00:44.092Z,70.38
2022-10-01T00:01:44.196Z,70.59
2022-10-01T00:02:44.158Z,70.59
2022-10-01T00:03:44.062Z,70.69
2022-10-01T00:04:44.043Z,70.69
2022-10-01T00:05:44.042Z,70.90
2022-10-01T00:06:44.023Z,70.59
2022-10-01T00:07:44.020Z,70.59
2022-10-01T00:08:44.084Z,70.28
2022-10-01T00:09:43.994Z,69.87
2022-10-01T00:10:43.972Z,70.18
2022-10-01T00:11:43.974Z,69.97
2022-10-01T00:12:43.952Z,70.18
2022-10-01T00:13:43.933Z,70.18
2022-10-01T00:14:43.951Z,70.28
2022-10-01T00:15:43.922Z,70.18
2022-10-01T00:16:43.977Z,69.97
2022-10-01T00:17:43.893Z,69.76
2022-10-01T00:18:43.913Z,69.46
2022-10-01T00:19:43.933Z,69.25
2022-10-01T00:20:43.852Z,69.35
2022-10-01T00:21:43.841Z,69.56
2022-10-01T00:22:43.862Z,69.76
2022-10-01T00:23:43.821Z,70.07
2022-10-01T00:24:43.811Z,69.97
2022-10-01T00:25:43.837Z,70.28
2022-10-01T00:26:43.791Z,69.87
2022-10-01T00:27:43.816Z,70.07
2022-10-01T00:28:43.771Z,70.18
2022-10-01T00:29:43.761Z,70.28
2022-10-01T00:30:43.784Z,70.07
2022-10-01T00:31:43.998Z,70.48
2022-10-01T00:32:43.721Z,70.31
2022-10-01T00:33:43.700Z,70.42
2022-10-01T00:34:43.699Z,69.90
2022-10-01T00:35:43.681Z,69.70
2022-10-01T00:36:43.671Z,69.49
2022-10-01T00:37:43.674Z,68.56
2022-10-01T00:38:43.651Z,68.56
2022-10-01T00:39:43.635Z,67.94
2022-10-01T00:40:43.632Z,67.74
2022-10-01T00:41:43.612Z,67.30
2022-10-01T00:42:43.593Z,67.30
2022-10-01T00:43:43.601Z,66.99
2022-10-01T00:44:43.571Z,66.37
2022-10-01T00:45:43.671Z,65.95
2022-10-01T00:46:43.551Z,65.23
2022-10-01T00:47:43.531Z,65.31
2022-10-01T00:48:43.531Z,65.52
2022-10-01T00:49:43.654Z,65.11
2022-10-01T00:50:43.534Z,65.52
2022-10-01T00:51:43.501Z,65.62
2022-10-01T00:52:43.480Z,65.41
2022-10-01T00:53:43.469Z,65.62
2022-10-01T00:54:43.488Z,65.52
2022-10-01T00:55:43.458Z,65.31
2022-10-01T00:56:43.433Z,65.72
2022-10-01T00:57:43.430Z,65.52
2022-10-01T00:58:43.411Z,65.72
2022-10-01T00:59:43.392Z,65.83
2022-10-01T01:00:43.471Z,66.13
2022-10-01T01:01:43.430Z,66.13
2022-10-01T01:02:43.454Z,66.24
2022-10-01T01:03:43.351Z,66.54
2022-10-01T01:04:43.342Z,66.96
2022-10-01T01:05:43.340Z,66.75
2022-10-01T01:06:43.362Z,66.54
2022-10-01T01:07:43.318Z,66.64
2022-10-01T01:08:43.310Z,66.64
2022-10-01T01:09:43.289Z,66.85
2022-10-01T01:10:43.272Z,66.85
2022-10-01T01:11:43.269Z,67.06
2022-10-01T01:12:43.362Z,67.06
2022-10-01T01:13:43.231Z,67.06
2022-10-01T01:14:43.230Z,67.06
2022-10-01T01:15:43.268Z,67.26
2022-10-01T01:16:43.202Z,67.06
2022-10-01T01:17:43.261Z,66.96
2022-10-01T01:18:43.181Z,67.16
2022-10-01T01:19:43.181Z,67.16
2022-10-01T01:20:43.162Z,67.47
2022-10-01T01:21:43.140Z,67.54
2022-10-01T01:22:43.130Z,67.75
2022-10-01T01:23:43.150Z,68.26
2022-10-01T01:24:43.119Z,68.57
2022-10-01T01:25:43.111Z,68.67
2022-10-01T01:26:43.091Z,68.88
2022-10-01T01:27:43.154Z,69.60
2022-10-01T01:28:43.120Z,70.18
2022-10-01T01:29:43.050Z,71.00
2022-10-01T01:30:43.091Z,71.41
2022-10-01T01:31:43.060Z,72.03
2022-10-01T01:32:43.021Z,72.75
2022-10-01T01:33:43.010Z,73.47
2022-10-01T01:34:43.020Z,74.40
2022-10-01T01:35:43.001Z,75.21
2022-10-01T01:36:42.993Z,75.93
2022-10-01T01:37:42.992Z,76.62
2022-10-01T01:38:42.950Z,77.23
2022-10-01T01:39:42.941Z,77.85
2022-10-01T01:40:42.950Z,78.98
2022-10-01T01:41:42.920Z,79.29
2022-10-01T01:42:42.907Z,79.60
2022-10-01T01:43:42.901Z,79.91
2022-10-01T01:44:42.894Z,80.83
2022-10-01T01:45:42.928Z,81.34
2022-10-01T01:46:42.881Z,81.86
2022-10-01T01:47:42.848Z,82.17
2022-10-01T01:48:42.842Z,82.27
2022-10-01T01:49:42.821Z,82.47
2022-10-01T01:50:42.821Z,82.78
2022-10-01T01:51:42.830Z,82.89
2022-10-01T01:52:42.800Z,82.89
2022-10-01T01:53:42.790Z,83.09
2022-10-01T01:54:42.780Z,83.19
2022-10-01T01:55:42.780Z,83.61
2022-10-01T01:56:42.752Z,83.91
2022-10-01T01:57:42.758Z,83.91
2022-10-01T01:58:42.729Z,84.12
2022-10-01T01:59:42.741Z,84.22
2022-10-01T02:00:42.707Z,84.22
2022-10-01T02:01:42.741Z,84.32
2022-10-01T02:02:42.695Z,84.32
2022-10-01T02:03:42.690Z,84.22
2022-10-01T02:04:42.659Z,84.63
2022-10-01T02:05:42.684Z,84.84
2022-10-01T02:06:42.633Z,84.84
2022-10-01T02:07:42.629Z,84.94
2022-10-01T02:08:42.612Z,85.14
2022-10-01T02:09:42.624Z,85.14
2022-10-01T02:10:42.589Z,85.35
2022-10-01T02:11:42.580Z,85.35
2022-10-01T02:12:42.567Z,85.35
2022-10-01T02:13:42.591Z,85.04
2022-10-01T02:14:42.552Z,85.14
2022-10-01T02:15:42.719Z,85.21
2022-10-01T02:16:42.519Z,85.31
2022-10-01T02:17:42.512Z,85.41
2022-10-01T02:18:42.499Z,85.72
2022-10-01T02:19:42.480Z,85.72
2022-10-01T02:20:42.479Z,86.13
2022-10-01T02:21:42.507Z,86.33
2022-10-01T02:22:42.459Z,86.75
2022-10-01T02:23:42.440Z,87.16
2022-10-01T02:24:42.430Z,87.37
2022-10-01T02:25:42.439Z,87.37
2022-10-01T02:26:42.429Z,87.57
2022-10-01T02:27:42.428Z,87.67
2022-10-01T02:28:42.390Z,88.29
2022-10-01T02:29:42.369Z,88.49
2022-10-01T02:30:42.368Z,88.39
2022-10-01T02:31:42.447Z,88.29
2022-10-01T02:32:42.419Z,88.49
2022-10-01T02:33:42.349Z,88.49
2022-10-01T02:34:42.328Z,88.39
2022-10-01T02:35:42.336Z,88.59
2022-10-01T02:36:42.301Z,88.39
2022-10-01T02:37:42.280Z,89.01
2022-10-01T02:38:42.277Z,89.21
2022-10-01T02:39:42.279Z,89.52
2022-10-01T02:40:42.300Z,89.62
2022-10-01T02:41:42.247Z,89.83
2022-10-01T02:42:42.233Z,89.72
2022-10-01T02:43:43.216Z,89.93
2022-10-01T02:44:42.228Z,89.93
2022-10-01T02:45:42.240Z,90.03
2022-10-01T02:46:42.203Z,89.93
2022-10-01T02:47:42.172Z,89.83
2022-10-01T02:48:42.158Z,89.62
2022-10-01T02:49:42.149Z,89.93
2022-10-01T02:50:42.164Z,89.83
2022-10-01T02:51:42.130Z,89.99
2022-10-01T02:52:42.189Z,89.99
2022-10-01T02:53:42.098Z,89.69
2022-10-01T02:54:42.097Z,89.48
2022-10-01T02:55:42.099Z,89.27
2022-10-01T02:56:48.618Z,88.96
2022-10-01T02:57:43.069Z,88.96
2022-10-01T02:58:42.048Z,88.96
2022-10-01T02:59:42.037Z,88.56
2022-10-01T03:00:42.168Z,88.24
2022-10-01T03:01:42.049Z,88.04
2022-10-01T03:02:42.070Z,87.73
2022-10-01T03:03:41.989Z,87.32
2022-10-01T03:04:41.979Z,86.81
2022-10-01T03:05:41.991Z,86.30
2022-10-01T03:06:41.968Z,85.99
2022-10-01T03:07:41.949Z,85.68
2022-10-01T03:08:41.972Z,85.38
2022-10-01T03:09:41.930Z,85.33
2022-10-01T03:10:45.995Z,85.33
2022-10-01T03:11:41.898Z,85.23
2022-10-01T03:12:41.890Z,85.23
2022-10-01T03:13:41.881Z,85.33
2022-10-01T03:14:41.957Z,85.44
2022-10-01T03:15:41.919Z,85.54
2022-10-01T03:16:41.848Z,85.54
2022-10-01T03:18:31.339Z,85.74
2022-10-01T03:19:31.348Z,85.64
2022-10-01T03:20:31.328Z,85.85
2022-10-01T03:21:31.671Z,86.05
2022-10-01T03:22:31.309Z,85.85
2022-10-01T03:23:31.288Z,86.05
2022-10-01T03:24:31.280Z,85.74
2022-10-01T03:25:31.289Z,85.54
2022-10-01T03:26:31.260Z,85.33
2022-10-01T03:27:31.239Z,84.92
2022-10-01T03:28:31.276Z,84.72
2022-10-01T03:29:31.219Z,84.52
2022-10-01T03:30:31.209Z,84.10
2022-10-01T03:31:31.687Z,83.39
2022-10-01T03:32:31.189Z,83.07
2022-10-01T03:33:31.169Z,82.91
2022-10-01T03:34:31.163Z,82.15
2022-10-01T03:35:31.150Z,81.88
2022-10-01T03:36:31.150Z,81.27
2022-10-01T03:37:31.150Z,80.86
2022-10-01T03:38:31.119Z,80.45
2022-10-01T03:39:31.107Z,79.93
2022-10-01T03:40:31.099Z,79.32
2022-10-01T03:41:31.186Z,78.60
2022-10-01T03:42:31.070Z,77.68
2022-10-01T03:43:31.071Z,77.26
2022-10-01T03:44:31.050Z,76.96
2022-10-01T03:45:31.117Z,76.24
2022-10-01T03:46:31.029Z,75.83
2022-10-01T03:47:31.009Z,75.21
2022-10-01T03:48:31.029Z,74.91
2022-10-01T03:49:30.991Z,74.49
2022-10-01T03:50:30.981Z,74.08
2022-10-01T03:51:31.168Z,73.47
2022-10-01T03:52:30.959Z,72.96
2022-10-01T03:53:30.951Z,72.65
2022-10-01T03:54:30.958Z,72.14
2022-10-01T03:55:30.922Z,72.03
2022-10-01T03:56:30.912Z,71.62
2022-10-01T03:57:30.898Z,71.31
2022-10-01T03:58:30.897Z,70.80
2022-10-01T03:59:30.891Z,70.29
2022-10-01T04:00:30.889Z,70.29
2022-10-01T04:01:31.105Z,69.88
2022-10-01T04:02:31.002Z,69.40
2022-10-01T04:03:30.831Z,69.29
2022-10-01T04:04:30.821Z,68.68
2022-10-01T04:05:30.810Z,68.48
2022-10-01T04:06:30.821Z,68.27
2022-10-01T04:07:30.796Z,68.27
2022-10-01T04:08:30.779Z,67.76
2022-10-01T04:09:30.761Z,67.65
2022-10-01T04:10:30.757Z,67.35
2022-10-01T04:11:31.019Z,67.14
2022-10-01T04:12:30.750Z,67.03
2022-10-01T04:13:30.719Z,66.73
2022-10-01T04:14:30.709Z,66.52
2022-10-01T04:15:30.699Z,66.22
2022-10-01T04:16:30.735Z,66.01
2022-10-01T04:17:30.718Z,66.01
2022-10-01T04:18:30.664Z,65.50
2022-10-01T04:19:30.649Z,65.50
2022-10-01T04:20:30.770Z,65.29
2022-10-01T04:21:30.788Z,65.19
2022-10-01T04:22:30.618Z,64.88
2022-10-01T04:23:30.631Z,64.57
2022-10-01T04:24:30.590Z,64.47
2022-10-01T04:25:30.589Z,64.57
2022-10-01T04:26:30.569Z,64.26
2022-10-01T04:27:30.562Z,64.16
2022-10-01T04:28:30.607Z,64.06
2022-10-01T04:29:30.560Z,63.85
2022-10-01T04:30:30.521Z,63.75
2022-10-01T04:31:30.534Z,63.65
2022-10-01T04:32:30.508Z,63.65
2022-10-01T04:33:30.502Z,63.65
2022-10-01T04:34:30.488Z,63.44
2022-10-01T04:35:30.488Z,63.34
2022-10-01T04:36:30.452Z,63.24
2022-10-01T04:37:30.448Z,63.03
2022-10-01T04:38:30.437Z,63.03
2022-10-01T04:39:30.428Z,62.83
2022-10-01T04:40:30.429Z,62.73
2022-10-01T04:41:30.514Z,62.73
2022-10-01T04:42:30.389Z,62.62
2022-10-01T04:43:30.379Z,62.62
2022-10-01T04:44:30.370Z,62.52
2022-10-01T04:45:30.358Z,62.31
2022-10-01T04:46:30.660Z,62.31
2022-10-01T04:47:32.676Z,62.31
2022-10-01T04:48:30.319Z,62.21
2022-10-01T04:49:30.317Z,61.90
2022-10-01T04:50:30.298Z,61.90
2022-10-01T04:51:30.289Z,61.70
2022-10-01T04:52:30.298Z,61.60
2022-10-01T04:53:30.268Z,61.49
2022-10-01T04:54:30.258Z,61.29
2022-10-01T04:55:30.249Z,61.18
2022-10-01T04:56:30.230Z,61.08
2022-10-01T04:57:30.228Z,61.08
2022-10-01T04:58:30.229Z,60.67
2022-10-01T04:59:30.199Z,60.67
2022-10-01T05:00:30.178Z,60.57
2022-10-01T05:01:30.224Z,60.57
2022-10-01T05:02:30.189Z,60.36
2022-10-01T05:03:30.150Z,60.16
2022-10-01T05:04:30.149Z,60.05
2022-10-01T05:05:30.129Z,59.95
2022-10-01T05:06:30.119Z,60.05
2022-10-01T05:07:30.107Z,59.85
2022-10-01T05:08:30.098Z,60.05
2022-10-01T05:09:30.109Z,59.75
2022-10-01T05:10:30.068Z,59.95
2022-10-01T05:11:30.066Z,59.75
2022-10-01T05:12:30.048Z,59.54
2022-10-01T05:13:30.302Z,59.54
2022-10-01T05:14:30.022Z,59.54
2022-10-01T05:15:30.045Z,59.54
2022-10-01T05:16:30.045Z,59.44
2022-10-01T05:17:29.989Z,59.44
2022-10-01T05:18:29.978Z,59.23
2022-10-01T05:19:29.968Z,59.44
2022-10-01T05:20:30.007Z,59.23
2022-10-01T05:21:29.951Z,59.23
2022-10-01T05:22:29.936Z,59.23
2022-10-01T05:23:29.928Z,59.13
2022-10-01T05:24:29.908Z,59.03
2022-10-01T05:25:29.900Z,59.13
2022-10-01T05:26:29.908Z,59.03
2022-10-01T05:27:29.878Z,59.23
2022-10-01T05:28:30.074Z,59.03
2022-10-01T05:29:29.858Z,59.03
2022-10-01T05:30:29.839Z,59.03
2022-10-01T05:31:29.910Z,58.92
2022-10-01T05:32:29.837Z,58.83
2022-10-01T05:33:29.807Z,58.83
2022-10-01T05:34:29.797Z,58.72
2022-10-01T05:35:29.820Z,58.62
2022-10-01T05:36:29.769Z,58.51
2022-10-01T05:37:29.795Z,58.39
2022-10-01T05:38:29.749Z,58.18
2022-10-01T05:39:29.739Z,58.18
2022-10-01T05:40:29.728Z,58.07
2022-10-01T05:41:29.718Z,58.07
2022-10-01T05:42:29.705Z,58.07
2022-10-01T05:43:29.707Z,57.98
2022-10-01T05:44:29.678Z,57.98
2022-10-01T05:45:29.753Z,57.87
2022-10-01T05:46:29.662Z,57.87
2022-10-01T05:47:29.660Z,57.77
2022-10-01T05:48:29.728Z,57.77
2022-10-01T05:49:29.633Z,57.77
2022-10-01T05:50:29.617Z,57.64
2022-10-01T05:51:29.609Z,57.64
2022-10-01T05:52:29.588Z,57.75
2022-10-01T05:53:29.577Z,57.64
2022-10-01T05:54:29.626Z,57.64
2022-10-01T05:55:29.558Z,57.54
2022-10-01T05:56:29.546Z,57.64
2022-10-01T05:57:29.537Z,57.54
2022-10-01T05:58:29.520Z,57.64
2022-10-01T05:59:31.870Z,57.75
2022-10-01T06:00:29.595Z,57.64
2022-10-01T06:01:29.497Z,57.64
2022-10-01T06:02:29.617Z,57.64
2022-10-01T06:03:29.467Z,57.64
2022-10-01T06:04:29.450Z,57.75
2022-10-01T06:05:29.478Z,57.64
2022-10-01T06:06:29.430Z,57.54
2022-10-01T06:07:29.429Z,57.54
2022-10-01T06:08:29.408Z,57.54
2022-10-01T06:09:29.408Z,57.64
2022-10-01T06:10:29.400Z,57.54
2022-10-01T06:11:29.406Z,57.54
2022-10-01T06:12:29.367Z,57.43
2022-10-01T06:13:29.363Z,57.54
2022-10-01T06:14:29.347Z,57.54
2022-10-01T06:15:29.363Z,57.54
2022-10-01T06:16:29.366Z,57.43
2022-10-01T06:17:29.331Z,57.41
2022-10-01T06:18:29.297Z,57.51
2022-10-01T06:19:29.291Z,57.41
2022-10-01T06:20:29.267Z,57.51
2022-10-01T06:21:29.268Z,57.41
2022-10-01T06:22:29.298Z,57.51
2022-10-01T06:23:29.248Z,57.31
2022-10-01T06:24:29.228Z,57.51
2022-10-01T06:25:29.220Z,57.51
2022-10-01T06:26:29.207Z,57.51
2022-10-01T06:27:29.206Z,57.41
2022-10-01T06:28:29.263Z,57.41
2022-10-01T06:29:29.175Z,57.61
2022-10-01T06:30:29.159Z,57.31
2022-10-01T06:31:29.183Z,57.61
2022-10-01T06:32:32.804Z,57.51
2022-10-01T06:33:30.146Z,57.41
2022-10-01T06:34:29.136Z,57.41
2022-10-01T06:35:29.117Z,57.61
2022-10-01T06:36:29.088Z,57.41
2022-10-01T06:37:29.087Z,57.41
2022-10-01T06:38:29.068Z,57.51
2022-10-01T06:39:29.067Z,57.41
2022-10-01T06:40:29.069Z,57.71
2022-10-01T06:41:29.041Z,57.51
2022-10-01T06:42:29.019Z,57.61
2022-10-01T06:43:29.019Z,57.71
2022-10-01T06:44:28.997Z,57.51
2022-10-01T06:45:29.041Z,57.41
2022-10-01T06:46:28.998Z,57.61
2022-10-01T06:47:28.968Z,57.41
2022-10-01T06:48:28.956Z,57.51
2022-10-01T06:49:28.947Z,57.61
2022-10-01T06:50:28.927Z,57.41
2022-10-01T06:51:28.919Z,57.51
2022-10-01T06:52:28.930Z,57.51
2022-10-01T06:53:28.899Z,57.51
2022-10-01T06:54:28.888Z,57.41
2022-10-01T06:55:28.879Z,57.31
2022-10-01T06:56:28.860Z,57.41
2022-10-01T06:57:28.866Z,57.41
2022-10-01T06:58:28.857Z,57.71
2022-10-01T06:59:28.828Z,57.51
2022-10-01T07:00:28.817Z,57.51
2022-10-01T07:01:28.856Z,57.61
2022-10-01T07:02:28.914Z,57.38
2022-10-01T07:03:28.797Z,57.51
2022-10-01T07:04:28.768Z,57.48
2022-10-01T07:05:28.766Z,57.41
2022-10-01T07:06:28.747Z,57.48
2022-10-01T07:07:30.096Z,57.38
2022-10-01T07:08:28.719Z,57.28
2022-10-01T07:09:28.757Z,57.28
2022-10-01T07:10:28.699Z,57.48
2022-10-01T07:11:28.687Z,57.48
2022-10-01T07:12:28.677Z,57.69
2022-10-01T07:13:28.669Z,57.38
2022-10-01T07:14:28.648Z,57.59
2022-10-01T07:15:28.658Z,57.69
2022-10-01T07:16:28.698Z,57.59
2022-10-01T07:17:28.630Z,57.59
2022-10-01T07:18:28.609Z,57.38
2022-10-01T07:19:28.619Z,57.48
2022-10-01T07:20:28.609Z,57.79
2022-10-01T07:21:28.576Z,57.69
2022-10-01T07:22:28.558Z,57.59
2022-10-01T07:23:28.578Z,57.69
2022-10-01T07:24:28.541Z,57.59
2022-10-01T07:25:28.536Z,57.48
2022-10-01T07:26:28.571Z,57.59
2022-10-01T07:27:28.509Z,57.69
2022-10-01T07:28:28.608Z,57.59
2022-10-01T07:29:28.498Z,57.48
2022-10-01T07:30:28.475Z,57.79
2022-10-01T07:31:28.515Z,57.79
2022-10-01T07:32:28.476Z,57.69
2022-10-01T07:33:28.459Z,57.59
2022-10-01T07:34:28.430Z,57.69
2022-10-01T07:35:28.431Z,57.79
2022-10-01T07:36:28.399Z,58.00
2022-10-01T07:37:28.396Z,57.59
2022-10-01T07:38:28.398Z,57.56
2022-10-01T07:39:28.368Z,58.00
2022-10-01T07:40:28.358Z,57.66
2022-10-01T07:41:28.348Z,57.97
2022-10-01T07:42:28.328Z,57.76
2022-10-01T07:43:28.347Z,57.76
2022-10-01T07:44:28.312Z,58.07
2022-10-01T07:45:28.339Z,57.66
2022-10-01T07:46:31.488Z,58.07
2022-10-01T07:47:29.278Z,57.87
2022-10-01T07:48:28.266Z,57.97
2022-10-01T07:49:28.280Z,57.76
2022-10-01T07:50:28.238Z,58.07
2022-10-01T07:51:28.243Z,57.87
2022-10-01T07:52:28.217Z,57.87
2022-10-01T07:53:28.210Z,57.87
2022-10-01T07:54:28.215Z,57.87
2022-10-01T07:55:28.188Z,57.87
2022-10-01T07:56:28.169Z,58.07
2022-10-01T07:57:28.168Z,57.76
2022-10-01T07:58:28.147Z,57.76
2022-10-01T07:59:28.140Z,57.97
2022-10-01T08:00:28.146Z,57.87
2022-10-01T08:01:28.147Z,58.07
2022-10-01T08:02:28.151Z,58.38
2022-10-01T08:03:28.087Z,58.07
2022-10-01T08:04:28.081Z,58.17
2022-10-01T08:05:28.075Z,57.97
2022-10-01T08:06:28.084Z,58.17
2022-10-01T08:07:28.048Z,58.07
2022-10-01T08:08:28.028Z,58.17
2022-10-01T08:09:28.027Z,58.07
2022-10-01T08:10:28.016Z,58.17
2022-10-01T08:11:27.998Z,58.07
2022-10-01T08:12:28.028Z,58.48
2022-10-01T08:13:27.980Z,58.28
2022-10-01T08:14:27.967Z,58.58
2022-10-01T08:15:27.956Z,58.48
2022-10-01T08:16:27.962Z,58.17
2022-10-01T08:17:29.513Z,58.28
2022-10-01T08:18:27.938Z,58.28
2022-10-01T08:19:27.916Z,58.58
2022-10-01T08:20:27.897Z,58.38
2022-10-01T08:21:27.887Z,58.69
2022-10-01T08:22:27.868Z,58.89
2022-10-01T08:23:27.867Z,58.69
2022-10-01T08:24:27.879Z,58.89
2022-10-01T08:25:27.840Z,58.79
2022-10-01T08:26:27.828Z,59.00
2022-10-01T08:27:27.817Z,59.09
2022-10-01T08:28:27.860Z,59.20
2022-10-01T08:29:27.861Z,59.30
2022-10-01T08:30:27.788Z,59.07
2022-10-01T08:31:27.801Z,59.07
2022-10-01T08:32:27.769Z,59.07
2022-10-01T08:33:27.748Z,59.27
2022-10-01T08:34:27.738Z,59.48
2022-10-01T08:35:27.758Z,59.27
2022-10-01T08:36:27.718Z,59.89
2022-10-01T08:37:27.704Z,59.38
2022-10-01T08:38:27.688Z,59.58
2022-10-01T08:39:27.677Z,59.58
2022-10-01T08:40:27.690Z,59.89
2022-10-01T08:41:27.657Z,59.89
2022-10-01T08:42:27.650Z,59.89
2022-10-01T08:43:27.637Z,59.86
2022-10-01T08:44:27.629Z,59.45
2022-10-01T08:45:27.648Z,59.76
2022-10-01T08:46:27.839Z,59.96
2022-10-01T08:47:27.585Z,59.86
2022-10-01T08:48:27.577Z,60.47
2022-10-01T08:49:27.557Z,60.06
2022-10-01T08:50:27.559Z,60.55
2022-10-01T08:51:27.540Z,60.55
2022-10-01T08:52:27.552Z,60.96
2022-10-01T08:53:27.519Z,60.85
2022-10-01T08:54:27.509Z,61.57
2022-10-01T08:55:27.492Z,61.47
2022-10-01T08:56:27.478Z,61.85
2022-10-01T08:57:27.469Z,62.26
2022-10-01T08:58:27.479Z,62.36
2022-10-01T08:59:27.604Z,61.95
2022-10-01T09:00:27.458Z,63.69
2022-10-01T09:01:27.497Z,63.69
2022-10-01T09:02:27.417Z,65.02
2022-10-01T09:03:27.427Z,64.61
2022-10-01T09:04:27.479Z,64.30
2022-10-01T09:05:27.380Z,64.71
2022-10-01T09:06:27.370Z,63.69
2022-10-01T09:07:27.357Z,63.79
2022-10-01T09:08:27.349Z,64.51
2022-10-01T09:09:27.358Z,64.71
2022-10-01T09:10:27.320Z,64.58
2022-10-01T09:11:27.308Z,64.27
2022-10-01T09:12:27.298Z,64.65
2022-10-01T09:13:27.290Z,68.12
2022-10-01T09:14:27.279Z,68.23
2022-10-01T09:15:27.289Z,68.12
2022-10-01T09:16:27.295Z,69.35
2022-10-01T09:17:27.241Z,69.04
2022-10-01T09:18:34.281Z,69.32
2022-10-01T09:19:27.219Z,69.11
2022-10-01T09:20:29.872Z,68.91
2022-10-01T09:21:27.219Z,70.54
2022-10-01T09:22:27.189Z,70.88
2022-10-01T09:23:27.170Z,70.27
2022-10-01T09:24:27.170Z,70.37
2022-10-01T09:25:27.174Z,70.47
2022-10-01T09:26:27.139Z,69.65
2022-10-01T09:27:27.150Z,70.68
2022-10-01T09:28:27.202Z,70.71
2022-10-01T09:29:27.101Z,69.89
2022-10-01T09:30:27.116Z,69.35
2022-10-01T09:31:27.137Z,69.07
2022-10-01T09:32:27.069Z,68.77
2022-10-01T09:33:27.100Z,68.26
2022-10-01T09:34:27.041Z,67.34
2022-10-01T09:35:27.031Z,67.00
2022-10-01T09:36:27.024Z,67.51
2022-10-01T09:37:27.010Z,67.71
2022-10-01T09:38:27.000Z,68.02
2022-10-01T09:39:27.000Z,67.71
2022-10-01T09:40:26.979Z,67.99
2022-10-01T09:41:26.961Z,69.11
2022-10-01T09:42:26.951Z,69.32
2022-10-01T09:43:26.940Z,69.82
2022-10-01T09:44:26.931Z,70.34
2022-10-01T09:45:27.007Z,70.14
2022-10-01T09:46:26.911Z,70.54
2022-10-01T09:47:26.892Z,70.54
2022-10-01T09:48:26.880Z,71.05
2022-10-01T09:49:26.871Z,71.97
2022-10-01T09:50:26.883Z,71.97
2022-10-01T09:51:26.850Z,71.67
2022-10-01T09:52:26.841Z,71.46
2022-10-01T09:53:26.832Z,70.54
2022-10-01T09:54:26.820Z,70.00
2022-10-01T09:55:26.822Z,70.81
2022-10-01T09:56:26.822Z,69.96
2022-10-01T09:57:26.782Z,70.98
2022-10-01T09:58:26.771Z,71.56
2022-10-01T09:59:26.751Z,71.97
2022-10-01T10:00:26.769Z,72.58
2022-10-01T10:01:26.749Z,73.47
2022-10-01T10:02:26.863Z,78.05
2022-10-01T10:03:26.792Z,75.51
2022-10-01T10:04:26.715Z,77.20
2022-10-01T10:05:26.684Z,77.61
2022-10-01T10:06:26.681Z,78.42
2022-10-01T10:07:26.690Z,78.83
2022-10-01T10:08:26.654Z,79.20
2022-10-01T10:09:26.646Z,79.81
2022-10-01T10:10:26.632Z,84.09
2022-10-01T10:11:26.611Z,83.17
2022-10-01T10:12:26.619Z,83.98
2022-10-01T10:13:26.632Z,85.37
2022-10-01T10:14:26.591Z,84.25
2022-10-01T10:15:26.601Z,87.12
2022-10-01T10:16:26.808Z,89.26
2022-10-01T10:17:26.561Z,89.05
2022-10-01T10:18:26.544Z,90.74
2022-10-01T10:19:26.550Z,91.35
2022-10-01T10:20:26.611Z,92.22
2022-10-01T10:21:26.502Z,93.59
2022-10-01T10:22:26.492Z,91.35
2022-10-01T10:23:26.530Z,91.82
2022-10-01T10:24:26.586Z,94.60
2022-10-01T10:25:26.463Z,94.40
2022-10-01T10:26:26.451Z,94.70
2022-10-01T10:27:27.224Z,94.95
2022-10-01T10:28:26.478Z,96.07
2022-10-01T10:29:26.413Z,93.93
2022-10-01T10:30:26.458Z,94.38
2022-10-01T10:31:26.429Z,93.37
2022-10-01T10:32:26.383Z,91.64
2022-10-01T10:33:26.394Z,92.35
2022-10-01T10:34:26.358Z,90.62
2022-10-01T10:35:26.341Z,91.23
2022-10-01T10:36:26.353Z,90.25
2022-10-01T10:37:26.314Z,90.97
2022-10-01T10:38:26.389Z,89.89
2022-10-01T10:39:26.434Z,87.85
2022-10-01T10:40:29.464Z,89.64
2022-10-01T10:41:26.289Z,86.49
2022-10-01T10:42:26.295Z,87.92
2022-10-01T10:43:26.244Z,89.64
2022-10-01T10:44:26.255Z,88.63
2022-10-01T10:45:26.235Z,87.71
2022-10-01T10:46:26.244Z,89.00
2022-10-01T10:47:26.206Z,90.83
2022-10-01T10:48:26.275Z,88.69
2022-10-01T10:49:26.176Z,92.04
2022-10-01T10:50:26.176Z,90.17
2022-10-01T10:51:26.166Z,91.53
2022-10-01T10:52:26.148Z,92.00
2022-10-01T10:53:26.151Z,90.99
2022-10-01T10:54:26.145Z,93.22
2022-10-01T10:55:26.114Z,92.87
2022-10-01T10:56:26.196Z,95.92
2022-10-01T10:57:26.085Z,96.37
2022-10-01T10:58:26.105Z,94.95
2022-10-01T10:59:26.067Z,93.02
2022-10-01T11:00:26.087Z,93.68
2022-10-01T11:01:26.111Z,94.34
2022-10-01T11:02:26.076Z,92.71
2022-10-01T11:03:26.017Z,88.75
2022-10-01T11:04:26.014Z,89.31
2022-10-01T11:05:26.016Z,90.19
2022-10-01T11:06:25.986Z,93.24
2022-10-01T11:07:26.046Z,92.12
2022-10-01T11:08:25.965Z,87.75
2022-10-01T11:09:25.959Z,88.52
2022-10-01T11:10:25.936Z,91.87
2022-10-01T11:11:25.947Z,91.32
2022-10-01T11:12:25.919Z,94.92
2022-10-01T11:13:25.905Z,92.79
2022-10-01T11:14:25.898Z,91.06
2022-10-01T11:15:25.879Z,90.86
2022-10-01T11:16:25.991Z,92.42
2022-10-01T11:17:25.868Z,94.50
2022-10-01T11:18:25.848Z,90.13
2022-10-01T11:19:25.827Z,90.03
2022-10-01T11:20:25.828Z,89.58
2022-10-01T11:21:25.807Z,89.68
2022-10-01T11:22:25.818Z,87.65
2022-10-01T11:23:25.797Z,89.48
2022-10-01T11:24:25.787Z,89.43
2022-10-01T11:25:25.776Z,90.31
2022-10-01T11:26:25.756Z,90.88
2022-10-01T11:27:25.739Z,93.41
2022-10-01T11:28:25.795Z,91.48
2022-10-01T11:29:25.737Z,95.70
2022-10-01T11:30:25.717Z,93.16
2022-10-01T11:31:25.739Z,94.74
2022-10-01T11:32:25.690Z,95.61
2022-10-01T11:33:25.669Z,98.95
2022-10-01T11:34:25.729Z,97.08
2022-10-01T11:35:25.674Z,99.61
2022-10-01T11:36:25.648Z,99.99
2022-10-01T11:37:25.643Z,99.99
2022-10-01T11:38:25.622Z,98.80
2022-10-01T11:39:25.602Z,99.99
2022-10-01T11:40:25.647Z,99.99
2022-10-01T11:41:25.582Z,99.99
2022-10-01T11:42:25.569Z,99.99
2022-10-01T11:43:25.642Z,99.86
2022-10-01T11:44:25.550Z,99.99
2022-10-01T11:45:25.588Z,99.99
2022-10-01T11:46:25.570Z,99.99
2022-10-01T11:47:25.510Z,99.99
2022-10-01T11:48:25.502Z,99.99
2022-10-01T11:49:25.497Z,99.99
2022-10-01T11:50:25.502Z,99.99
2022-10-01T11:51:25.471Z,99.99
2022-10-01T11:52:25.543Z,99.99
2022-10-01T11:53:25.455Z,99.99
2022-10-01T11:54:25.441Z,99.99
2022-10-01T11:55:25.430Z,99.99
2022-10-01T11:56:25.427Z,99.99
2022-10-01T11:57:25.425Z,99.99
2022-10-01T11:58:25.408Z,99.99
2022-10-01T11:59:25.381Z,99.52
2022-10-01T12:00:27.391Z,97.85
2022-10-01T12:01:25.390Z,99.07
2022-10-01T12:02:25.400Z,99.87
2022-10-01T12:03:25.362Z,98.11
2022-10-01T12:04:25.331Z,98.71
2022-10-01T12:05:25.394Z,99.48
2022-10-01T12:06:26.818Z,96.65
2022-10-01T12:07:25.294Z,96.34
2022-10-01T12:08:25.303Z,95.54
2022-10-01T12:09:25.273Z,96.14
2022-10-01T12:10:25.264Z,96.30
2022-10-01T12:11:25.243Z,95.90
2022-10-01T12:12:25.234Z,94.74
2022-10-01T12:13:25.226Z,94.24
2022-10-01T12:14:25.252Z,94.84
2022-10-01T12:15:25.213Z,95.55
2022-10-01T12:16:25.216Z,93.01
2022-10-01T12:17:25.182Z,96.59
2022-10-01T12:18:25.169Z,98.01
2022-10-01T12:19:25.177Z,98.61
2022-10-01T12:20:25.147Z,98.01
2022-10-01T12:21:25.126Z,97.65
2022-10-01T12:22:25.126Z,98.56
2022-10-01T12:23:25.096Z,98.01
2022-10-01T12:24:25.092Z,97.36
2022-10-01T12:25:25.615Z,96.34
2022-10-01T12:26:25.065Z,95.54
2022-10-01T12:27:25.044Z,95.89
2022-10-01T12:28:25.085Z,95.89
2022-10-01T12:29:25.045Z,96.84
2022-10-01T12:30:25.041Z,97.34
2022-10-01T12:31:25.103Z,98.05
2022-10-01T12:32:25.977Z,98.25
2022-10-01T12:33:24.988Z,99.22
2022-10-01T12:34:25.030Z,98.92
2022-10-01T12:35:24.998Z,98.16
2022-10-01T12:36:24.973Z,97.45
2022-10-01T12:37:25.124Z,96.29
2022-10-01T12:38:25.024Z,97.71
2022-10-01T12:39:24.928Z,97.86
2022-10-01T12:40:24.917Z,97.40
2022-10-01T12:41:24.889Z,96.94
2022-10-01T12:42:24.888Z,99.41
2022-10-01T12:43:24.897Z,99.21
2022-10-01T12:44:24.866Z,99.82
2022-10-01T12:45:24.902Z,99.99
2022-10-01T12:46:24.973Z,99.99
2022-10-01T12:47:24.832Z,99.99
2022-10-01T12:48:24.811Z,99.92
2022-10-01T12:49:24.827Z,99.99
2022-10-01T12:50:24.869Z,99.77
2022-10-01T12:51:24.793Z,99.22
2022-10-01T12:52:24.778Z,97.50
2022-10-01T12:53:24.770Z,98.01